sensor_id;sensor_type;location;lat;lon;timestamp;pressure;altitude;pressure_sealevel;temperature;humidity
46690;BME280;32423;45.398;10.874;2022-12-11T00:01:44;98969.97;;;11.02;61.94
46690;BME280;32423;45.398;10.874;2022-12-11T00:04:28;98969.41;;;10.93;62.79
46690;BME280;32423;45.398;10.874;2022-12-11T00:07:12;98971.06;;;10.98;61.89
46690;BME280;32423;45.398;10.874;2022-12-11T00:09:57;98975.31;;;10.95;62.22
46690;BME280;32423;45.398;10.874;2022-12-11T00:12:42;98975.03;;;10.81;63.03
46690;BME280;32423;45.398;10.874;2022-12-11T00:15:26;98974.25;;;10.81;62.57
46690;BME280;32423;45.398;10.874;2022-12-11T00:18:11;98977.94;;;10.72;63.38
46690;BME280;32423;45.398;10.874;2022-12-11T00:21:02;98982.53;;;10.68;63.83
46690;BME280;32423;45.398;10.874;2022-12-11T00:23:46;98981.34;;;10.66;64.03
46690;BME280;32423;45.398;10.874;2022-12-11T00:26:31;98983.50;;;10.99;67.53
46690;BME280;32423;45.398;10.874;2022-12-11T00:29:16;98981.84;;;11.13;63.00
46690;BME280;32423;45.398;10.874;2022-12-11T00:32:01;98989.97;;;10.91;63.51
46690;BME280;32423;45.398;10.874;2022-12-11T00:34:45;98983.91;;;11.20;63.87
46690;BME280;32423;45.398;10.874;2022-12-11T00:37:29;98985.59;;;11.05;62.97
46690;BME280;32423;45.398;10.874;2022-12-11T00:40:14;98986.31;;;10.83;63.82
46690;BME280;32423;45.398;10.874;2022-12-11T00:42:58;98988.31;;;10.67;64.81
46690;BME280;32423;45.398;10.874;2022-12-11T00:45:44;98987.59;;;10.89;64.46
46690;BME280;32423;45.398;10.874;2022-12-11T00:48:29;98994.16;;;11.27;65.75
46690;BME280;32423;45.398;10.874;2022-12-11T00:51:13;98994.63;;;11.55;63.78
46690;BME280;32423;45.398;10.874;2022-12-11T00:53:58;98991.25;;;11.84;64.23
46690;BME280;32423;45.398;10.874;2022-12-11T00:56:42;98996.97;;;12.02;62.34
46690;BME280;32423;45.398;10.874;2022-12-11T00:59:27;99004.25;;;12.21;63.23
46690;BME280;32423;45.398;10.874;2022-12-11T01:02:12;99008.88;;;12.47;63.24
46690;BME280;32423;45.398;10.874;2022-12-11T01:04:56;99017.47;;;12.19;60.50
46690;BME280;32423;45.398;10.874;2022-12-11T01:07:41;99008.50;;;11.92;62.25
46690;BME280;32423;45.398;10.874;2022-12-11T01:10:25;99012.63;;;11.82;61.89
46690;BME280;32423;45.398;10.874;2022-12-11T01:13:10;99020.66;;;11.52;62.51
46690;BME280;32423;45.398;10.874;2022-12-11T01:15:55;99012.03;;;11.28;63.50
46690;BME280;32423;45.398;10.874;2022-12-11T01:18:40;99011.47;;;11.19;63.72
46690;BME280;32423;45.398;10.874;2022-12-11T01:21:24;99017.22;;;11.13;64.39
46690;BME280;32423;45.398;10.874;2022-12-11T01:24:08;99021.06;;;11.54;63.79
46690;BME280;32423;45.398;10.874;2022-12-11T01:26:53;99012.97;;;11.81;65.33
46690;BME280;32423;45.398;10.874;2022-12-11T01:29:37;99023.16;;;12.10;64.31
46690;BME280;32423;45.398;10.874;2022-12-11T01:32:22;99030.81;;;12.27;63.63
46690;BME280;32423;45.398;10.874;2022-12-11T01:35:06;99034.22;;;12.47;62.75
46690;BME280;32423;45.398;10.874;2022-12-11T01:37:51;99032.03;;;12.60;62.78
46690;BME280;32423;45.398;10.874;2022-12-11T01:40:36;99033.03;;;12.74;62.44
46690;BME280;32423;45.398;10.874;2022-12-11T01:43:20;99032.78;;;12.86;62.66
46690;BME280;32423;45.398;10.874;2022-12-11T01:46:04;99037.91;;;12.92;60.65
46690;BME280;32423;45.398;10.874;2022-12-11T01:48:49;99029.66;;;12.84;60.50
46690;BME280;32423;45.398;10.874;2022-12-11T01:51:35;99027.56;;;12.74;60.24
46690;BME280;32423;45.398;10.874;2022-12-11T01:54:22;99027.59;;;12.48;59.73
46690;BME280;32423;45.398;10.874;2022-12-11T01:57:08;99038.91;;;12.50;63.70
46690;BME280;32423;45.398;10.874;2022-12-11T01:59:54;99025.44;;;12.61;61.17
46690;BME280;32423;45.398;10.874;2022-12-11T02:02:39;99029.81;;;12.39;60.59
46690;BME280;32423;45.398;10.874;2022-12-11T02:05:24;99038.41;;;12.71;62.69
46690;BME280;32423;45.398;10.874;2022-12-11T02:08:08;99041.88;;;12.38;60.17
46690;BME280;32423;45.398;10.874;2022-12-11T02:11:00;99044.44;;;12.27;61.11
46690;BME280;32423;45.398;10.874;2022-12-11T02:13:48;99049.00;;;12.46;60.79
46690;BME280;32423;45.398;10.874;2022-12-11T02:25:25;99053.25;;;12.73;62.16
46690;BME280;32423;45.398;10.874;2022-12-11T02:28:16;99056.50;;;12.82;61.42
46690;BME280;32423;45.398;10.874;2022-12-11T02:31:09;99063.28;;;12.66;59.86
46690;BME280;32423;45.398;10.874;2022-12-11T02:34:03;99058.16;;;12.61;60.41
46690;BME280;32423;45.398;10.874;2022-12-11T02:36:53;99060.50;;;12.92;61.46
46690;BME280;32423;45.398;10.874;2022-12-11T02:39:40;99063.28;;;12.66;61.09
46690;BME280;32423;45.398;10.874;2022-12-11T02:42:27;99053.84;;;12.60;60.37
46690;BME280;32423;45.398;10.874;2022-12-11T02:45:13;99050.69;;;12.54;60.08
46690;BME280;32423;45.398;10.874;2022-12-11T02:47:58;99044.09;;;12.29;60.90
46690;BME280;32423;45.398;10.874;2022-12-11T02:50:46;99038.69;;;12.32;61.02
46690;BME280;32423;45.398;10.874;2022-12-11T02:53:32;99032.13;;;12.37;60.84
46690;BME280;32423;45.398;10.874;2022-12-11T02:56:20;99031.28;;;12.07;61.31
46690;BME280;32423;45.398;10.874;2022-12-11T02:59:09;99028.44;;;11.73;62.40
46690;BME280;32423;45.398;10.874;2022-12-11T03:01:56;99033.59;;;11.59;62.35
46690;BME280;32423;45.398;10.874;2022-12-11T03:04:40;99028.25;;;11.66;62.96
46690;BME280;32423;45.398;10.874;2022-12-11T03:07:26;99030.91;;;11.82;63.79
46690;BME280;32423;45.398;10.874;2022-12-11T03:10:13;99039.75;;;11.56;62.70
46690;BME280;32423;45.398;10.874;2022-12-11T03:12:58;99043.03;;;11.65;64.46
46690;BME280;32423;45.398;10.874;2022-12-11T03:24:27;99061.44;;;14.25;61.45
46690;BME280;32423;45.398;10.874;2022-12-11T03:30:11;99063.13;;;15.16;58.15
46690;BME280;32423;45.398;10.874;2022-12-11T03:32:59;99084.25;;;15.19;56.41
46690;BME280;32423;45.398;10.874;2022-12-11T03:35:56;99072.50;;;15.08;57.98
46690;BME280;32423;45.398;10.874;2022-12-11T03:38:45;99087.09;;;15.44;57.06
46690;BME280;32423;45.398;10.874;2022-12-11T03:41:32;99076.59;;;15.60;56.54
46690;BME280;32423;45.398;10.874;2022-12-11T03:44:18;99080.53;;;15.73;55.88
46690;BME280;32423;45.398;10.874;2022-12-11T03:47:04;99074.28;;;15.79;55.65
46690;BME280;32423;45.398;10.874;2022-12-11T03:49:50;99089.25;;;14.99;56.07
46690;BME280;32423;45.398;10.874;2022-12-11T03:52:35;99081.00;;;14.88;55.14
46690;BME280;32423;45.398;10.874;2022-12-11T03:55:21;99078.31;;;14.92;57.46
46690;BME280;32423;45.398;10.874;2022-12-11T03:58:06;99082.16;;;14.84;57.64
46690;BME280;32423;45.398;10.874;2022-12-11T04:00:50;99082.94;;;14.81;56.45
46690;BME280;32423;45.398;10.874;2022-12-11T04:03:35;99085.56;;;14.12;56.50
46690;BME280;32423;45.398;10.874;2022-12-11T04:06:19;99091.13;;;13.79;57.21
46690;BME280;32423;45.398;10.874;2022-12-11T04:09:03;99084.25;;;13.95;58.77
46690;BME280;32423;45.398;10.874;2022-12-11T04:11:48;99081.06;;;13.86;57.05
46690;BME280;32423;45.398;10.874;2022-12-11T04:14:32;99087.94;;;13.36;55.85
46690;BME280;32423;45.398;10.874;2022-12-11T04:17:35;99093.59;;;13.17;57.06
46690;BME280;32423;45.398;10.874;2022-12-11T04:20:39;99099.31;;;12.78;58.31
46690;BME280;32423;45.398;10.874;2022-12-11T04:23:42;99097.94;;;12.65;59.58
46690;BME280;32423;45.398;10.874;2022-12-11T04:26:46;99091.53;;;12.80;57.51
46690;BME280;32423;45.398;10.874;2022-12-11T04:29:30;99091.84;;;12.75;57.61
46690;BME280;32423;45.398;10.874;2022-12-11T04:32:15;99091.09;;;12.49;58.22
46690;BME280;32423;45.398;10.874;2022-12-11T04:34:59;99086.88;;;12.55;58.48
46690;BME280;32423;45.398;10.874;2022-12-11T04:37:44;99088.31;;;12.45;59.27
46690;BME280;32423;45.398;10.874;2022-12-11T04:40:28;99089.47;;;12.44;57.45
46690;BME280;32423;45.398;10.874;2022-12-11T04:43:12;99086.16;;;12.31;58.75
46690;BME280;32423;45.398;10.874;2022-12-11T04:46:05;99099.63;;;12.21;59.38
46690;BME280;32423;45.398;10.874;2022-12-11T04:48:50;99105.88;;;12.48;59.39
46690;BME280;32423;45.398;10.874;2022-12-11T04:51:35;99105.41;;;12.42;58.01
46690;BME280;32423;45.398;10.874;2022-12-11T04:54:20;99105.75;;;12.40;60.04
46690;BME280;32423;45.398;10.874;2022-12-11T04:57:04;99112.97;;;12.52;57.19
46690;BME280;32423;45.398;10.874;2022-12-11T04:59:49;99110.75;;;12.35;58.58
46690;BME280;32423;45.398;10.874;2022-12-11T05:02:34;99112.63;;;12.31;59.68
46690;BME280;32423;45.398;10.874;2022-12-11T05:05:19;99107.09;;;12.24;58.57
46690;BME280;32423;45.398;10.874;2022-12-11T05:08:03;99106.72;;;12.52;59.82
46690;BME280;32423;45.398;10.874;2022-12-11T05:10:58;99100.00;;;13.02;60.61
46690;BME280;32423;45.398;10.874;2022-12-11T05:13:43;99083.16;;;12.66;58.19
46690;BME280;32423;45.398;10.874;2022-12-11T05:16:27;99088.53;;;12.59;57.75
46690;BME280;32423;45.398;10.874;2022-12-11T05:19:12;99091.63;;;12.31;57.82
46690;BME280;32423;45.398;10.874;2022-12-11T05:21:56;99087.53;;;12.18;57.00
46690;BME280;32423;45.398;10.874;2022-12-11T05:24:41;99074.69;;;12.19;57.13
46690;BME280;32423;45.398;10.874;2022-12-11T05:27:25;99082.66;;;12.57;58.26
46690;BME280;32423;45.398;10.874;2022-12-11T05:30:10;99077.94;;;12.28;58.69
46690;BME280;32423;45.398;10.874;2022-12-11T05:32:54;99094.78;;;12.33;59.02
46690;BME280;32423;45.398;10.874;2022-12-11T05:35:45;99095.00;;;12.25;57.36
46690;BME280;32423;45.398;10.874;2022-12-11T05:38:30;99098.16;;;12.27;59.01
46690;BME280;32423;45.398;10.874;2022-12-11T05:41:15;99098.44;;;12.18;57.69
46690;BME280;32423;45.398;10.874;2022-12-11T05:44:00;99098.06;;;11.97;56.75
46690;BME280;32423;45.398;10.874;2022-12-11T05:46:44;99091.81;;;12.19;58.74
46690;BME280;32423;45.398;10.874;2022-12-11T05:49:28;99085.28;;;12.24;57.93
46690;BME280;32423;45.398;10.874;2022-12-11T05:52:13;99090.88;;;12.08;58.37
46690;BME280;32423;45.398;10.874;2022-12-11T05:54:57;99075.09;;;12.21;57.24
46690;BME280;32423;45.398;10.874;2022-12-11T05:57:42;99068.44;;;12.44;57.26
46690;BME280;32423;45.398;10.874;2022-12-11T06:00:26;99064.25;;;12.24;57.01
46690;BME280;32423;45.398;10.874;2022-12-11T06:03:11;99061.47;;;12.21;57.13
46690;BME280;32423;45.398;10.874;2022-12-11T06:05:55;99073.19;;;12.25;59.08
46690;BME280;32423;45.398;10.874;2022-12-11T06:08:39;99077.47;;;12.22;57.75
46690;BME280;32423;45.398;10.874;2022-12-11T06:11:24;99085.16;;;12.17;58.38
46690;BME280;32423;45.398;10.874;2022-12-11T06:14:09;99083.34;;;12.02;58.36
46690;BME280;32423;45.398;10.874;2022-12-11T06:16:54;99081.69;;;11.93;58.03
46690;BME280;32423;45.398;10.874;2022-12-11T06:19:38;99079.25;;;11.88;58.04
46690;BME280;32423;45.398;10.874;2022-12-11T06:22:23;99078.41;;;11.42;55.93
46690;BME280;32423;45.398;10.874;2022-12-11T06:25:07;99074.47;;;11.40;57.74
46690;BME280;32423;45.398;10.874;2022-12-11T06:27:52;99075.88;;;11.34;58.39
46690;BME280;32423;45.398;10.874;2022-12-11T06:30:37;99082.28;;;11.41;57.28
46690;BME280;32423;45.398;10.874;2022-12-11T06:33:21;99078.41;;;11.65;61.08
46690;BME280;32423;45.398;10.874;2022-12-11T06:36:07;99079.47;;;11.80;58.41
46690;BME280;32423;45.398;10.874;2022-12-11T06:38:52;99086.72;;;11.72;57.93
46690;BME280;32423;45.398;10.874;2022-12-11T06:41:38;99089.44;;;11.72;55.95
46690;BME280;32423;45.398;10.874;2022-12-11T06:44:23;99091.06;;;11.73;56.21
46690;BME280;32423;45.398;10.874;2022-12-11T06:47:08;99099.72;;;11.59;57.95
46690;BME280;32423;45.398;10.874;2022-12-11T06:49:52;99104.53;;;12.12;61.71
46690;BME280;32423;45.398;10.874;2022-12-11T06:52:37;99095.81;;;12.52;59.05
46690;BME280;32423;45.398;10.874;2022-12-11T06:55:24;99101.94;;;12.71;56.88
46690;BME280;32423;45.398;10.874;2022-12-11T06:58:10;99104.16;;;12.62;54.59
46690;BME280;32423;45.398;10.874;2022-12-11T07:00:55;99108.66;;;12.77;58.64
46690;BME280;32423;45.398;10.874;2022-12-11T07:03:39;99115.50;;;12.94;58.60
46690;BME280;32423;45.398;10.874;2022-12-11T07:06:24;99120.88;;;12.91;57.23
46690;BME280;32423;45.398;10.874;2022-12-11T07:09:09;99128.84;;;12.73;55.92
46690;BME280;32423;45.398;10.874;2022-12-11T07:11:54;99121.56;;;12.54;60.20
46690;BME280;32423;45.398;10.874;2022-12-11T07:14:38;99125.03;;;13.37;58.32
46690;BME280;32423;45.398;10.874;2022-12-11T07:17:23;99125.38;;;13.06;56.42
46690;BME280;32423;45.398;10.874;2022-12-11T07:20:07;99128.09;;;13.06;55.62
46690;BME280;32423;45.398;10.874;2022-12-11T07:22:52;99118.50;;;12.33;52.35
46690;BME280;32423;45.398;10.874;2022-12-11T07:25:37;99124.06;;;12.66;61.28
46690;BME280;32423;45.398;10.874;2022-12-11T07:28:22;99132.09;;;12.82;57.79
46690;BME280;32423;45.398;10.874;2022-12-11T07:31:07;99140.19;;;12.49;56.75
46690;BME280;32423;45.398;10.874;2022-12-11T07:33:54;99147.09;;;12.42;57.11
46690;BME280;32423;45.398;10.874;2022-12-11T07:36:39;99146.97;;;12.88;58.30
46690;BME280;32423;45.398;10.874;2022-12-11T07:39:23;99151.00;;;12.98;59.79
46690;BME280;32423;45.398;10.874;2022-12-11T07:42:08;99153.81;;;13.31;60.30
46690;BME280;32423;45.398;10.874;2022-12-11T07:44:52;99155.38;;;13.32;57.48
46690;BME280;32423;45.398;10.874;2022-12-11T07:47:36;99166.09;;;13.81;58.18
46690;BME280;32423;45.398;10.874;2022-12-11T07:50:21;99172.03;;;14.27;56.56
46690;BME280;32423;45.398;10.874;2022-12-11T07:53:06;99178.91;;;14.54;55.17
46690;BME280;32423;45.398;10.874;2022-12-11T07:55:51;99186.84;;;14.70;53.96
46690;BME280;32423;45.398;10.874;2022-12-11T07:58:35;99183.41;;;14.80;53.11
46690;BME280;32423;45.398;10.874;2022-12-11T08:01:22;99190.47;;;14.88;52.20
46690;BME280;32423;45.398;10.874;2022-12-11T08:04:08;99196.78;;;14.96;51.44
46690;BME280;32423;45.398;10.874;2022-12-11T08:06:53;99197.28;;;15.12;50.76
46690;BME280;32423;45.398;10.874;2022-12-11T08:09:37;99200.78;;;15.09;50.14
46690;BME280;32423;45.398;10.874;2022-12-11T08:12:22;99212.19;;;15.18;49.61
46690;BME280;32423;45.398;10.874;2022-12-11T08:15:06;99222.38;;;15.25;49.66
46690;BME280;32423;45.398;10.874;2022-12-11T08:17:51;99234.97;;;14.75;50.75
46690;BME280;32423;45.398;10.874;2022-12-11T08:20:39;99236.13;;;14.74;51.04
46690;BME280;32423;45.398;10.874;2022-12-11T08:23:23;99246.09;;;14.99;50.93
46690;BME280;32423;45.398;10.874;2022-12-11T08:26:08;99254.75;;;15.09;50.91
46690;BME280;32423;45.398;10.874;2022-12-11T08:28:53;99248.50;;;15.08;50.82
46690;BME280;32423;45.398;10.874;2022-12-11T08:31:38;99257.09;;;15.07;51.44
46690;BME280;32423;45.398;10.874;2022-12-11T08:34:22;99255.88;;;15.01;50.66
46690;BME280;32423;45.398;10.874;2022-12-11T08:37:07;99262.75;;;14.77;48.60
46690;BME280;32423;45.398;10.874;2022-12-11T08:39:52;99261.88;;;14.69;48.18
46690;BME280;32423;45.398;10.874;2022-12-11T08:42:36;99262.66;;;14.70;48.62
46690;BME280;32423;45.398;10.874;2022-12-11T08:45:21;99263.91;;;14.76;48.69
46690;BME280;32423;45.398;10.874;2022-12-11T08:48:05;99268.66;;;14.82;48.74
46690;BME280;32423;45.398;10.874;2022-12-11T08:50:50;99273.00;;;14.87;48.48
46690;BME280;32423;45.398;10.874;2022-12-11T08:53:34;99278.03;;;14.85;48.28
46690;BME280;32423;45.398;10.874;2022-12-11T08:56:19;99278.03;;;14.81;48.77
46690;BME280;32423;45.398;10.874;2022-12-11T08:59:05;99276.75;;;14.31;44.57
46690;BME280;32423;45.398;10.874;2022-12-11T09:01:50;99287.19;;;13.06;44.75
46690;BME280;32423;45.398;10.874;2022-12-11T09:04:34;99286.97;;;12.24;45.97
46690;BME280;32423;45.398;10.874;2022-12-11T09:07:19;99294.84;;;11.90;47.75
46690;BME280;32423;45.398;10.874;2022-12-11T09:10:04;99297.25;;;11.57;47.98
46690;BME280;32423;45.398;10.874;2022-12-11T09:12:49;99307.63;;;11.01;48.87
46690;BME280;32423;45.398;10.874;2022-12-11T09:15:34;99312.78;;;10.59;50.04
46690;BME280;32423;45.398;10.874;2022-12-11T09:18:19;99327.59;;;10.46;51.60
46690;BME280;32423;45.398;10.874;2022-12-11T09:21:04;99329.13;;;10.90;55.66
46690;BME280;32423;45.398;10.874;2022-12-11T09:23:54;99320.38;;;11.82;57.44
46690;BME280;32423;45.398;10.874;2022-12-11T09:26:39;99329.50;;;12.51;52.86
46690;BME280;32423;45.398;10.874;2022-12-11T09:29:24;99338.25;;;13.06;55.55
46690;BME280;32423;45.398;10.874;2022-12-11T09:32:08;99335.34;;;12.72;50.58
46690;BME280;32423;45.398;10.874;2022-12-11T09:34:53;99334.34;;;11.81;48.47
46690;BME280;32423;45.398;10.874;2022-12-11T09:37:37;99335.16;;;10.84;50.31
46690;BME280;32423;45.398;10.874;2022-12-11T09:40:22;99337.81;;;10.37;51.91
46690;BME280;32423;45.398;10.874;2022-12-11T09:43:18;99332.63;;;10.04;52.96
46690;BME280;32423;45.398;10.874;2022-12-11T09:46:08;99334.00;;;9.98;54.54
46690;BME280;32423;45.398;10.874;2022-12-11T09:48:53;99339.66;;;10.76;54.13
46690;BME280;32423;45.398;10.874;2022-12-11T09:51:39;99339.34;;;11.12;57.60
46690;BME280;32423;45.398;10.874;2022-12-11T09:54:25;99337.03;;;12.58;57.36
46690;BME280;32423;45.398;10.874;2022-12-11T09:57:24;99337.03;;;13.52;53.34
46690;BME280;32423;45.398;10.874;2022-12-11T10:00:25;99335.16;;;13.30;48.85
46690;BME280;32423;45.398;10.874;2022-12-11T10:03:17;99322.34;;;12.43;46.01
46690;BME280;32423;45.398;10.874;2022-12-11T10:06:09;99321.69;;;14.00;52.96
46690;BME280;32423;45.398;10.874;2022-12-11T10:17:43;99337.00;;;16.85;43.53
46690;BME280;32423;45.398;10.874;2022-12-11T10:20:31;99333.88;;;17.12;42.63
46690;BME280;32423;45.398;10.874;2022-12-11T10:23:37;99337.00;;;16.78;41.71
46690;BME280;32423;45.398;10.874;2022-12-11T10:26:23;99336.16;;;15.66;40.79
46690;BME280;32423;45.398;10.874;2022-12-11T10:29:12;99335.22;;;16.13;45.07
46690;BME280;32423;45.398;10.874;2022-12-11T10:31:57;99342.25;;;16.11;44.29
46690;BME280;32423;45.398;10.874;2022-12-11T10:34:43;99342.03;;;16.55;41.79
46690;BME280;32423;45.398;10.874;2022-12-11T10:37:29;99341.38;;;15.89;38.11
46690;BME280;32423;45.398;10.874;2022-12-11T10:40:14;99337.53;;;16.04;44.98
46690;BME280;32423;45.398;10.874;2022-12-11T10:42:59;99333.47;;;14.75;37.76
46690;BME280;32423;45.398;10.874;2022-12-11T10:45:50;99331.34;;;13.35;40.76
46690;BME280;32423;45.398;10.874;2022-12-11T10:48:43;99329.00;;;12.46;43.16
46690;BME280;32423;45.398;10.874;2022-12-11T10:54:29;99341.88;;;12.91;52.62
46690;BME280;32423;45.398;10.874;2022-12-11T10:57:14;99331.28;;;12.02;43.67
46690;BME280;32423;45.398;10.874;2022-12-11T10:59:59;99336.72;;;11.32;45.96
46690;BME280;32423;45.398;10.874;2022-12-11T11:02:44;99317.50;;;11.59;49.80
46690;BME280;32423;45.398;10.874;2022-12-11T11:05:33;99333.91;;;11.63;48.07
46690;BME280;32423;45.398;10.874;2022-12-11T11:08:19;99334.09;;;11.20;48.62
46690;BME280;32423;45.398;10.874;2022-12-11T11:11:05;99336.56;;;11.09;49.10
46690;BME280;32423;45.398;10.874;2022-12-11T11:14:03;99342.84;;;10.50;50.95
46690;BME280;32423;45.398;10.874;2022-12-11T11:16:49;99345.06;;;10.33;50.73
46690;BME280;32423;45.398;10.874;2022-12-11T11:19:34;99334.84;;;10.14;50.65
46690;BME280;32423;45.398;10.874;2022-12-11T11:22:19;99341.56;;;10.04;50.42
46690;BME280;32423;45.398;10.874;2022-12-11T11:25:04;99347.34;;;9.91;51.05
46690;BME280;32423;45.398;10.874;2022-12-11T11:30:34;99349.91;;;13.03;53.98
46690;BME280;32423;45.398;10.874;2022-12-11T11:33:20;99350.50;;;12.93;47.34
46690;BME280;32423;45.398;10.874;2022-12-11T11:36:06;99344.81;;;12.78;52.03
46690;BME280;32423;45.398;10.874;2022-12-11T11:44:59;99356.75;;;16.11;45.68
46690;BME280;32423;45.398;10.874;2022-12-11T11:47:51;99356.91;;;16.54;44.59
46690;BME280;32423;45.398;10.874;2022-12-11T11:50:43;99366.28;;;16.35;43.03
46690;BME280;32423;45.398;10.874;2022-12-11T11:59:15;99359.34;;;14.81;44.77
46690;BME280;32423;45.398;10.874;2022-12-11T12:02:08;99363.00;;;14.95;49.76
46690;BME280;32423;45.398;10.874;2022-12-11T12:04:57;99366.28;;;15.63;48.70
46690;BME280;32423;45.398;10.874;2022-12-11T12:13:22;99370.31;;;14.18;43.07
46690;BME280;32423;45.398;10.874;2022-12-11T12:21:59;99375.84;;;14.88;45.77
46690;BME280;32423;45.398;10.874;2022-12-11T12:24:59;99390.00;;;15.45;48.44
46690;BME280;32423;45.398;10.874;2022-12-11T12:30:48;99387.22;;;16.89;44.24
46690;BME280;32423;45.398;10.874;2022-12-11T12:33:40;99387.81;;;16.37;41.84
46690;BME280;32423;45.398;10.874;2022-12-11T12:42:18;99397.81;;;16.91;39.01
46690;BME280;32423;45.398;10.874;2022-12-11T12:48:14;99390.69;;;14.87;41.51
46690;BME280;32423;45.398;10.874;2022-12-11T12:50:59;99407.19;;;14.27;46.90
46690;BME280;32423;45.398;10.874;2022-12-11T12:53:48;99414.06;;;14.81;44.07
46690;BME280;32423;45.398;10.874;2022-12-11T12:56:34;99407.47;;;13.17;43.47
46690;BME280;32423;45.398;10.874;2022-12-11T12:59:23;99408.06;;;12.07;45.49
46690;BME280;32423;45.398;10.874;2022-12-11T13:02:12;99410.78;;;11.56;46.24
46690;BME280;32423;45.398;10.874;2022-12-11T13:05:02;99413.63;;;11.29;47.10
46690;BME280;32423;45.398;10.874;2022-12-11T13:07:48;99413.22;;;10.83;48.25
46690;BME280;32423;45.398;10.874;2022-12-11T13:10:34;99419.16;;;10.29;50.72
46690;BME280;32423;45.398;10.874;2022-12-11T13:13:25;99412.59;;;10.06;50.72
46690;BME280;32423;45.398;10.874;2022-12-11T13:19:00;99413.38;;;9.55;52.70
46690;BME280;32423;45.398;10.874;2022-12-11T13:21:53;99422.06;;;9.36;53.77
46690;BME280;32423;45.398;10.874;2022-12-11T13:24:55;99421.94;;;9.20;53.28
46690;BME280;32423;45.398;10.874;2022-12-11T13:27:43;99427.44;;;8.99;54.33
46690;BME280;32423;45.398;10.874;2022-12-11T13:30:27;99426.16;;;8.73;55.01
46690;BME280;32423;45.398;10.874;2022-12-11T13:33:16;99434.66;;;8.83;55.59
46690;BME280;32423;45.398;10.874;2022-12-11T13:36:05;99426.03;;;8.81;55.23
46690;BME280;32423;45.398;10.874;2022-12-11T13:39:03;99432.69;;;8.72;55.33
46690;BME280;32423;45.398;10.874;2022-12-11T13:41:52;99442.78;;;8.83;55.53
46690;BME280;32423;45.398;10.874;2022-12-11T13:44:39;99435.41;;;8.84;55.52
46690;BME280;32423;45.398;10.874;2022-12-11T13:47:24;99442.47;;;8.64;56.07
46690;BME280;32423;45.398;10.874;2022-12-11T13:50:12;99440.13;;;8.75;56.26
46690;BME280;32423;45.398;10.874;2022-12-11T13:52:59;99436.25;;;8.64;56.06
46690;BME280;32423;45.398;10.874;2022-12-11T13:55:44;99438.28;;;8.34;56.81
46690;BME280;32423;45.398;10.874;2022-12-11T13:58:29;99425.56;;;8.26;57.27
46690;BME280;32423;45.398;10.874;2022-12-11T14:01:15;99433.69;;;8.26;58.16
46690;BME280;32423;45.398;10.874;2022-12-11T14:04:02;99431.22;;;8.41;57.51
46690;BME280;32423;45.398;10.874;2022-12-11T14:06:48;99445.41;;;8.38;57.42
46690;BME280;32423;45.398;10.874;2022-12-11T14:09:32;99450.22;;;8.12;58.08
46690;BME280;32423;45.398;10.874;2022-12-11T14:12:18;99455.81;;;8.07;58.22
46690;BME280;32423;45.398;10.874;2022-12-11T14:15:03;99452.56;;;8.43;57.83
46690;BME280;32423;45.398;10.874;2022-12-11T14:17:48;99446.59;;;8.49;58.25
46690;BME280;32423;45.398;10.874;2022-12-11T14:20:33;99446.72;;;8.53;58.31
46690;BME280;32423;45.398;10.874;2022-12-11T14:23:19;99444.59;;;8.58;57.54
46690;BME280;32423;45.398;10.874;2022-12-11T14:26:17;99448.66;;;8.52;57.27
46690;BME280;32423;45.398;10.874;2022-12-11T14:29:03;99441.84;;;8.46;57.38
46690;BME280;32423;45.398;10.874;2022-12-11T14:31:47;99455.44;;;8.58;57.99
46690;BME280;32423;45.398;10.874;2022-12-11T14:34:34;99450.28;;;8.45;57.69
46690;BME280;32423;45.398;10.874;2022-12-11T14:37:20;99456.09;;;8.55;57.53
46690;BME280;32423;45.398;10.874;2022-12-11T14:40:07;99452.06;;;8.62;57.53
46690;BME280;32423;45.398;10.874;2022-12-11T14:42:58;99455.44;;;8.58;57.46
46690;BME280;32423;45.398;10.874;2022-12-11T14:45:44;99463.91;;;8.57;57.69
46690;BME280;32423;45.398;10.874;2022-12-11T14:48:32;99468.25;;;8.70;57.55
46690;BME280;32423;45.398;10.874;2022-12-11T14:51:19;99464.94;;;8.65;57.61
46690;BME280;32423;45.398;10.874;2022-12-11T14:54:04;99486.38;;;8.57;57.59
46690;BME280;32423;45.398;10.874;2022-12-11T14:56:49;99485.81;;;8.64;57.43
46690;BME280;32423;45.398;10.874;2022-12-11T14:59:38;99486.38;;;8.57;57.19
46690;BME280;32423;45.398;10.874;2022-12-11T15:02:28;99487.53;;;8.27;58.22
46690;BME280;32423;45.398;10.874;2022-12-11T15:05:14;99492.19;;;7.97;58.95
46690;BME280;32423;45.398;10.874;2022-12-11T15:11:00;99501.94;;;7.90;58.99
46690;BME280;32423;45.398;10.874;2022-12-11T15:16:39;99490.75;;;7.70;59.82
46690;BME280;32423;45.398;10.874;2022-12-11T15:19:34;99505.38;;;7.69;59.62
46690;BME280;32423;45.398;10.874;2022-12-11T15:22:22;99506.00;;;7.75;60.03
46690;BME280;32423;45.398;10.874;2022-12-11T15:25:17;99502.44;;;7.54;60.68
46690;BME280;32423;45.398;10.874;2022-12-11T15:28:21;99506.03;;;7.66;60.56
46690;BME280;32423;45.398;10.874;2022-12-11T15:31:28;99505.50;;;7.82;59.60
46690;BME280;32423;45.398;10.874;2022-12-11T15:34:21;99512.38;;;7.70;61.27
46690;BME280;32423;45.398;10.874;2022-12-11T15:40:10;99512.09;;;7.63;61.05
46690;BME280;32423;45.398;10.874;2022-12-11T15:42:58;99513.69;;;7.64;61.01
46690;BME280;32423;45.398;10.874;2022-12-11T15:45:50;99521.63;;;7.69;60.69
46690;BME280;32423;45.398;10.874;2022-12-11T15:48:39;99519.41;;;7.63;60.43
46690;BME280;32423;45.398;10.874;2022-12-11T15:51:28;99525.53;;;7.51;61.32
46690;BME280;32423;45.398;10.874;2022-12-11T15:54:17;99530.06;;;7.68;60.74
46690;BME280;32423;45.398;10.874;2022-12-11T15:57:06;99539.53;;;7.83;60.39